Time;durP1;ratioP1;P1;durP2;ratioP2;P2;SDS_P1;SDS_P2;PMS_P1;PMS_P2;Temp;Humidity;BMP_temperature;BMP_pressure;BME280_temperature;BME280_humidity;BME280_pressure;Samples;Min_cycle;Max_cycle;Signal;HPM_P1;HPM_P2
2022/05/22 00:02:22;;;;;;;13.18;4.50;;;11.80;99.90;;;;;;5051665;28;20110;-80
2022/05/22 00:04:48;;;;;;;14.65;5.05;;;11.80;99.90;;;;;;5064296;28;20048;-80
2022/05/22 00:07:13;;;;;;;13.07;4.32;;;11.80;99.90;;;;;;5066856;28;20036;-80
2022/05/22 00:09:39;;;;;;;14.30;4.95;;;11.80;99.90;;;;;;5068343;28;20068;-81
2022/05/22 00:12:07;;;;;;;15.38;4.75;;;11.80;99.90;;;;;;5049591;28;20063;-80
2022/05/22 00:14:33;;;;;;;15.73;4.63;;;11.80;99.90;;;;;;5046499;28;20044;-80
2022/05/22 00:16:59;;;;;;;15.82;4.60;;;11.80;99.90;;;;;;5050062;28;20105;-80
2022/05/22 00:19:27;;;;;;;18.20;5.15;;;11.80;99.90;;;;;;5045859;28;20045;-80
2022/05/22 00:21:53;;;;;;;16.95;5.72;;;11.80;99.90;;;;;;5047288;28;20045;-80
2022/05/22 00:24:22;;;;;;;14.85;6.28;;;11.80;99.90;;;;;;5065555;28;20067;-80
2022/05/22 00:26:48;;;;;;;31.73;12.90;;;11.70;99.90;;;;;;5050383;28;20611;-80
2022/05/22 00:29:15;;;;;;;22.90;9.98;;;11.70;99.90;;;;;;5067953;28;20197;-81
2022/05/22 00:31:42;;;;;;;32.70;14.43;;;11.70;99.90;;;;;;5064596;28;20115;-80
2022/05/22 00:34:08;;;;;;;33.47;12.75;;;11.70;99.90;;;;;;5044202;28;21825;-80
2022/05/22 00:36:34;;;;;;;31.73;14.23;;;11.70;99.90;;;;;;5047010;28;20048;-80
2022/05/22 00:39:01;;;;;;;25.33;8.50;;;11.70;99.90;;;;;;5055816;28;20143;-80
2022/05/22 00:41:31;;;;;;;17.73;8.02;;;11.70;99.90;;;;;;5068572;28;20051;-80
2022/05/22 00:43:57;;;;;;;20.55;7.20;;;11.60;99.90;;;;;;5048619;28;20189;-80
2022/05/22 00:46:26;;;;;;;15.48;6.80;;;11.60;99.90;;;;;;5046466;28;20151;-80
2022/05/22 00:49:05;;;;;;;14.95;7.13;;;11.50;99.90;;;;;;5042666;28;20488;-80
2022/05/22 00:51:37;;;;;;;22.27;8.50;;;11.50;99.90;;;;;;5048844;28;20045;-79
2022/05/22 00:54:24;;;;;;;17.13;6.28;;;11.50;99.90;;;;;;5047325;28;20417;-80
2022/05/22 00:57:00;;;;;;;15.52;6.35;;;11.50;99.90;;;;;;5047782;28;20062;-79
2022/05/22 00:59:31;;;;;;;15.77;6.43;;;11.50;99.90;;;;;;5034976;28;20098;-79
2022/05/22 01:01:59;;;;;;;16.40;6.45;;;11.50;99.90;;;;;;5036852;28;20058;-79
2022/05/22 01:04:30;;;;;;;16.85;6.65;;;11.50;99.90;;;;;;5042853;28;20044;-80
2022/05/22 01:06:55;;;;;;;19.70;6.37;;;11.70;99.90;;;;;;5049489;28;20093;-80
2022/05/22 01:09:21;;;;;;;17.85;5.95;;;11.50;99.90;;;;;;5044620;28;20797;-80
2022/05/22 01:11:50;;;;;;;21.25;6.22;;;11.50;99.90;;;;;;5060775;28;20041;-80
2022/05/22 01:14:23;;;;;;;11.82;5.45;;;11.50;99.90;;;;;;5047424;28;20045;-80
2022/05/22 01:16:50;;;;;;;14.25;5.47;;;11.40;99.90;;;;;;5066005;28;20444;-79
2022/05/22 01:19:21;;;;;;;15.88;5.90;;;11.40;99.90;;;;;;5060933;28;20087;-80
2022/05/22 01:21:57;;;;;;;13.93;5.68;;;11.40;99.90;;;;;;5062282;28;20041;-80
2022/05/22 01:24:23;;;;;;;12.63;5.30;;;11.40;99.90;;;;;;5066638;28;20063;-80
2022/05/22 01:26:51;;;;;;;14.35;5.93;;;11.40;99.90;;;;;;5050079;28;20033;-79
2022/05/22 01:29:17;;;;;;;16.98;6.38;;;11.40;99.90;;;;;;5052904;28;20048;-79
2022/05/22 01:31:43;;;;;;;15.15;5.55;;;11.40;99.90;;;;;;5055840;28;20059;-80
2022/05/22 01:34:09;;;;;;;13.40;5.78;;;11.40;99.90;;;;;;5047898;28;20452;-79
2022/05/22 01:36:40;;;;;;;12.35;5.63;;;11.30;99.90;;;;;;5053019;28;20044;-80
2022/05/22 01:39:07;;;;;;;17.00;6.18;;;11.30;99.90;;;;;;5054819;28;20076;-80
2022/05/22 01:41:33;;;;;;;16.55;5.43;;;11.30;99.90;;;;;;5026550;28;20057;-80
2022/05/22 01:44:02;;;;;;;14.25;5.18;;;11.30;99.90;;;;;;5046696;28;20056;-78
2022/05/22 01:46:36;;;;;;;15.38;5.93;;;11.30;99.90;;;;;;5050365;28;20043;-80
2022/05/22 01:49:02;;;;;;;15.10;6.53;;;11.30;99.90;;;;;;5055797;28;20052;-81
2022/05/22 01:51:34;;;;;;;17.05;6.03;;;11.30;99.90;;;;;;5071635;28;20388;-79
2022/05/22 01:54:01;;;;;;;13.70;5.45;;;11.30;99.90;;;;;;5041069;28;20131;-79
2022/05/22 01:56:28;;;;;;;17.52;6.25;;;11.30;99.90;;;;;;5084964;28;20060;-79
2022/05/22 01:58:54;;;;;;;11.05;4.97;;;11.30;99.90;;;;;;5095848;28;20094;-79
2022/05/22 02:01:22;;;;;;;13.25;5.85;;;11.30;99.90;;;;;;5085240;28;20460;-80
2022/05/22 02:03:47;;;;;;;9.52;5.00;;;11.20;99.90;;;;;;5095461;28;20119;-80
2022/05/22 02:06:13;;;;;;;20.20;5.78;;;11.20;99.90;;;;;;5081026;28;20551;-80
2022/05/22 02:08:39;;;;;;;16.45;6.30;;;11.30;99.90;;;;;;5085329;28;20077;-80
2022/05/22 02:11:06;;;;;;;15.52;5.68;;;11.20;99.90;;;;;;5088305;28;20040;-79
2022/05/22 02:13:44;;;;;;;13.07;5.63;;;11.20;99.90;;;;;;5072549;28;21580;-80
2022/05/22 02:16:11;;;;;;;13.07;6.20;;;11.20;99.90;;;;;;5089562;28;20089;-80
2022/05/22 02:18:36;;;;;;;12.63;5.82;;;11.20;99.90;;;;;;5081132;28;20048;-80
2022/05/22 02:21:02;;;;;;;13.43;5.70;;;11.20;99.90;;;;;;5087775;28;20055;-80
2022/05/22 02:23:30;;;;;;;18.92;5.72;;;11.20;99.90;;;;;;5077469;28;20268;-80
2022/05/22 02:25:56;;;;;;;13.40;5.53;;;11.20;99.90;;;;;;5054714;28;20436;-79
2022/05/22 02:28:24;;;;;;;14.30;4.68;;;11.20;99.90;;;;;;5071411;28;20090;-80
2022/05/22 02:30:53;;;;;;;12.07;5.32;;;11.20;99.90;;;;;;5071934;28;20584;-80
2022/05/22 02:33:23;;;;;;;15.07;5.60;;;11.10;99.90;;;;;;5069769;28;20141;-80
2022/05/22 02:35:50;;;;;;;10.75;5.57;;;11.10;99.90;;;;;;5071409;28;20052;-80
2022/05/22 02:38:17;;;;;;;19.45;5.95;;;11.10;99.90;;;;;;5084049;28;20043;-80
2022/05/22 02:40:42;;;;;;;12.48;5.68;;;11.10;99.90;;;;;;5080307;28;20043;-79
2022/05/22 02:43:11;;;;;;;13.25;5.78;;;11.00;99.90;;;;;;5099123;28;20101;-80
2022/05/22 02:45:39;;;;;;;12.13;5.63;;;11.10;99.90;;;;;;5098802;28;20082;-80
2022/05/22 02:48:06;;;;;;;17.35;5.82;;;11.10;99.90;;;;;;5085803;28;20048;-80
2022/05/22 02:50:33;;;;;;;12.07;5.70;;;11.00;99.90;;;;;;5070729;28;20494;-79
2022/05/22 02:52:59;;;;;;;11.00;4.93;;;11.00;99.90;;;;;;5092802;28;20079;-79
2022/05/22 02:55:24;;;;;;;12.32;5.55;;;11.00;99.90;;;;;;5073886;28;20497;-80
2022/05/22 02:57:50;;;;;;;14.20;5.28;;;11.00;99.90;;;;;;5068648;28;20048;-80
2022/05/22 03:00:26;;;;;;;10.95;5.70;;;11.00;99.90;;;;;;5065343;28;20063;-79
2022/05/22 03:02:53;;;;;;;11.77;5.68;;;11.00;99.90;;;;;;5066630;28;20071;-80
2022/05/22 03:05:19;;;;;;;16.02;5.30;;;11.00;99.90;;;;;;5072162;28;20051;-80
2022/05/22 03:07:45;;;;;;;8.82;4.97;;;11.00;99.90;;;;;;5098045;28;20555;-79
2022/05/22 03:10:12;;;;;;;12.13;5.55;;;11.00;99.90;;;;;;5068703;28;20060;-80
2022/05/22 03:12:41;;;;;;;16.40;5.90;;;10.90;99.90;;;;;;5085460;28;20051;-80
2022/05/22 03:15:09;;;;;;;17.08;6.28;;;10.90;99.90;;;;;;5065675;28;20041;-80
2022/05/22 03:17:35;;;;;;;13.15;5.22;;;10.90;99.90;;;;;;5063834;28;20440;-80
2022/05/22 03:20:01;;;;;;;10.43;5.47;;;10.90;99.90;;;;;;5068313;28;20067;-80
2022/05/22 03:22:27;;;;;;;12.55;5.38;;;10.90;99.90;;;;;;5066313;28;20044;-80
2022/05/22 03:24:53;;;;;;;12.43;5.95;;;10.90;99.90;;;;;;5101341;28;20878;-80
2022/05/22 03:27:20;;;;;;;12.45;5.07;;;10.80;99.90;;;;;;5087888;28;20048;-79
2022/05/22 03:29:47;;;;;;;8.90;4.63;;;10.80;99.90;;;;;;5067213;28;20048;-79
2022/05/22 03:32:12;;;;;;;15.05;5.38;;;10.80;99.90;;;;;;5085739;28;20059;-80
2022/05/22 03:34:38;;;;;;;6.78;4.63;;;10.80;99.90;;;;;;5069859;28;20403;-80
2022/05/22 03:37:05;;;;;;;12.57;5.45;;;10.80;99.90;;;;;;5106236;28;20047;-80
2022/05/22 03:39:31;;;;;;;10.73;4.60;;;10.80;99.90;;;;;;5066044;28;20032;-80
2022/05/22 03:42:00;;;;;;;10.10;4.28;;;10.70;99.90;;;;;;5091184;28;20047;-80
2022/05/22 03:44:26;;;;;;;8.55;4.70;;;10.70;99.90;;;;;;5091328;28;20051;-79
2022/05/22 03:46:52;;;;;;;9.30;5.20;;;10.70;99.90;;;;;;5087025;28;20035;-79
2022/05/22 03:49:18;;;;;;;8.52;4.93;;;10.70;99.90;;;;;;5080975;28;20059;-80
2022/05/22 03:51:44;;;;;;;11.40;4.75;;;10.70;99.90;;;;;;5088331;28;20521;-80
2022/05/22 03:54:13;;;;;;;7.53;4.63;;;10.70;99.90;;;;;;5057602;28;20475;-80
2022/05/22 03:56:40;;;;;;;13.20;5.18;;;10.70;99.90;;;;;;5074919;28;20131;-80
2022/05/22 03:59:06;;;;;;;12.75;4.75;;;10.80;99.90;;;;;;5085762;28;20044;-80
2022/05/22 04:01:31;;;;;;;9.60;4.80;;;10.70;99.90;;;;;;5068475;28;20054;-80
2022/05/22 04:03:57;;;;;;;14.75;5.35;;;10.70;99.90;;;;;;5086035;28;20044;-80
2022/05/22 04:06:23;;;;;;;12.32;4.97;;;10.70;99.90;;;;;;5082100;28;20101;-80
2022/05/22 04:08:51;;;;;;;9.00;4.18;;;10.70;99.90;;;;;;5081343;28;20050;-80
2022/05/22 04:11:18;;;;;;;9.82;5.15;;;10.70;99.90;;;;;;5083798;28;20071;-80
2022/05/22 04:13:44;;;;;;;12.30;4.85;;;10.70;99.90;;;;;;5073425;28;20090;-80
2022/05/22 04:16:10;;;;;;;9.15;4.80;;;10.70;99.90;;;;;;5082883;28;20099;-80
2022/05/22 04:18:36;;;;;;;10.50;5.30;;;10.70;99.90;;;;;;5082744;28;20036;-80
2022/05/22 04:21:05;;;;;;;8.93;4.95;;;10.70;99.90;;;;;;5080363;28;20079;-80
2022/05/22 04:26:19;;;;;;;11.85;5.60;;;10.80;99.90;;;;;;5081650;28;20464;-80
2022/05/22 04:28:44;;;;;;;13.02;5.80;;;10.80;99.90;;;;;;5061436;28;20111;-80
2022/05/22 04:31:10;;;;;;;11.70;5.22;;;10.80;99.90;;;;;;5065621;28;20111;-80
2022/05/22 04:33:36;;;;;;;12.10;5.05;;;10.90;99.90;;;;;;5080362;28;20040;-80
2022/05/22 04:36:02;;;;;;;13.35;5.40;;;10.90;99.90;;;;;;5073907;28;20048;-80
2022/05/22 04:38:28;;;;;;;11.80;5.53;;;10.90;99.90;;;;;;5067475;28;20099;-80
2022/05/22 04:40:58;;;;;;;17.30;6.07;;;11.00;99.90;;;;;;5086473;28;20123;-79
2022/05/22 04:43:28;;;;;;;15.82;5.70;;;11.00;99.90;;;;;;5069525;28;20604;-79
2022/05/22 04:45:57;;;;;;;18.63;5.82;;;11.00;99.90;;;;;;5061012;28;20127;-80
2022/05/22 04:48:25;;;;;;;14.15;5.65;;;11.10;99.90;;;;;;5066708;28;20143;-80
2022/05/22 04:50:54;;;;;;;11.95;5.43;;;11.10;99.90;;;;;;5071205;28;20108;-80
2022/05/22 04:53:23;;;;;;;15.07;5.85;;;11.20;99.90;;;;;;5082949;28;20040;-80
2022/05/22 04:55:49;;;;;;;13.35;5.65;;;11.20;99.90;;;;;;5071983;28;20383;-80
2022/05/22 04:58:16;;;;;;;13.43;5.40;;;11.20;99.90;;;;;;5081772;28;20052;-80
2022/05/22 05:00:42;;;;;;;18.52;6.22;;;11.30;99.90;;;;;;5063296;28;20045;-81
2022/05/22 05:03:08;;;;;;;12.00;5.35;;;11.30;99.90;;;;;;5056746;28;20032;-81
2022/05/22 05:05:33;;;;;;;15.93;5.43;;;11.40;99.90;;;;;;5079867;28;20101;-81
2022/05/22 05:08:00;;;;;;;15.25;5.50;;;11.40;99.90;;;;;;5078415;28;20126;-81
2022/05/22 05:10:25;;;;;;;12.10;5.00;;;11.50;99.90;;;;;;5072599;28;20044;-81
2022/05/22 05:12:54;;;;;;;13.77;5.28;;;11.50;99.90;;;;;;5078983;28;20097;-81
2022/05/22 05:15:21;;;;;;;12.50;5.32;;;11.50;99.90;;;;;;5065259;28;20075;-82
2022/05/22 05:17:48;;;;;;;16.15;5.45;;;11.60;99.90;;;;;;5060148;28;20413;-81
2022/05/22 05:20:16;;;;;;;13.68;5.28;;;11.60;99.90;;;;;;5068740;28;20045;-81
2022/05/22 05:22:43;;;;;;;15.00;5.60;;;11.70;99.90;;;;;;5087277;28;20040;-81
2022/05/22 05:25:10;;;;;;;13.40;5.20;;;11.80;99.90;;;;;;5082884;28;20071;-79
2022/05/22 05:27:35;;;;;;;19.02;5.03;;;11.80;99.90;;;;;;5081199;28;20040;-82
2022/05/22 05:30:01;;;;;;;15.52;5.28;;;11.90;99.90;;;;;;5083956;28;20480;-80
2022/05/22 05:32:26;;;;;;;22.85;6.10;;;11.90;99.90;;;;;;5079449;28;20075;-80
2022/05/22 05:35:00;;;;;;;16.77;5.13;;;12.30;99.90;;;;;;5071282;28;20040;-80
2022/05/22 05:37:26;;;;;;;21.40;5.40;;;12.10;99.90;;;;;;5083881;28;20109;-79
2022/05/22 05:39:52;;;;;;;16.92;5.97;;;12.10;99.90;;;;;;5081082;28;20041;-81
2022/05/22 05:42:18;;;;;;;21.42;4.88;;;12.20;99.90;;;;;;5091382;28;20047;-80
2022/05/22 05:44:44;;;;;;;18.15;5.40;;;12.20;99.90;;;;;;5089686;28;20494;-82
2022/05/22 05:47:11;;;;;;;24.02;7.43;;;12.30;99.90;;;;;;5087317;28;20171;-80
2022/05/22 05:49:37;;;;;;;21.85;5.22;;;12.30;99.90;;;;;;5066179;28;20399;-82
2022/05/22 05:52:03;;;;;;;23.13;5.72;;;12.40;99.90;;;;;;5071608;28;20040;-80
2022/05/22 05:54:30;;;;;;;19.25;5.82;;;12.50;99.90;;;;;;5088659;28;21201;-81
2022/05/22 05:56:59;;;;;;;17.52;5.43;;;12.50;99.90;;;;;;5093886;28;20084;-81
2022/05/22 05:59:26;;;;;;;19.95;5.25;;;12.60;99.90;;;;;;5064960;28;20061;-82
2022/05/22 06:01:52;;;;;;;17.85;6.05;;;12.60;99.90;;;;;;5087106;28;20056;-81
2022/05/22 06:04:17;;;;;;;20.80;6.18;;;12.70;99.90;;;;;;5107788;28;20074;-82
2022/05/22 06:06:43;;;;;;;19.48;5.22;;;12.80;99.90;;;;;;5087929;28;20036;-81
2022/05/22 06:09:12;;;;;;;18.70;5.30;;;12.80;99.90;;;;;;5072614;28;20048;-82
2022/05/22 06:11:38;;;;;;;15.07;5.45;;;12.80;99.90;;;;;;5087317;28;20047;-81
2022/05/22 06:14:06;;;;;;;16.30;6.25;;;12.90;99.90;;;;;;5079609;28;20051;-81
2022/05/22 06:16:32;;;;;;;21.13;4.55;;;13.00;99.90;;;;;;5070827;28;20170;-82
2022/05/22 06:18:57;;;;;;;15.20;5.40;;;13.00;99.90;;;;;;5070257;28;20527;-83
2022/05/22 06:21:23;;;;;;;22.35;5.43;;;13.00;99.90;;;;;;5066256;28;20086;-82
2022/05/22 06:23:49;;;;;;;22.35;5.47;;;13.10;99.90;;;;;;5066446;28;20063;-81
2022/05/22 06:26:17;;;;;;;13.18;4.95;;;13.10;99.90;;;;;;5087114;28;20036;-81
2022/05/22 06:28:44;;;;;;;14.48;4.63;;;13.20;99.90;;;;;;5071065;28;20124;-81
2022/05/22 06:31:11;;;;;;;17.95;5.15;;;13.30;99.90;;;;;;5090099;28;20051;-82
2022/05/22 06:33:37;;;;;;;18.58;5.22;;;13.40;99.90;;;;;;5088712;28;20086;-81
2022/05/22 06:36:08;;;;;;;20.63;5.25;;;13.40;99.90;;;;;;5067793;28;20044;-82
2022/05/22 06:41:18;;;;;;;19.15;5.07;;;13.50;99.90;;;;;;5084149;28;20040;-84
2022/05/22 06:43:46;;;;;;;13.82;4.00;;;13.60;99.90;;;;;;5087918;28;20421;-81
2022/05/22 06:46:12;;;;;;;10.98;3.72;;;13.50;99.90;;;;;;5066175;28;20044;-81
2022/05/22 06:48:37;;;;;;;12.77;3.25;;;13.60;99.90;;;;;;5085624;28;20309;-81
2022/05/22 06:51:03;;;;;;;14.07;4.05;;;13.70;99.90;;;;;;5080297;28;20498;-80
2022/05/22 06:53:29;;;;;;;13.07;4.20;;;13.70;99.90;;;;;;5085532;28;20047;-80
2022/05/22 06:55:55;;;;;;;14.05;4.05;;;13.70;99.90;;;;;;5087170;28;20105;-81
2022/05/22 06:58:20;;;;;;;12.35;3.97;;;13.80;99.90;;;;;;5088820;28;20063;-82
2022/05/22 07:00:53;;;;;;;17.63;3.67;;;13.90;99.90;;;;;;5071183;28;20159;-83
2022/05/22 07:03:19;;;;;;;11.52;3.08;;;13.90;99.90;;;;;;5068979;28;20052;-82
2022/05/22 07:05:44;;;;;;;17.58;3.15;;;13.90;99.90;;;;;;5071217;28;20395;-82
2022/05/22 07:08:10;;;;;;;13.07;4.05;;;14.00;99.90;;;;;;5069260;28;20077;-82
2022/05/22 07:13:20;;;;;;;18.27;3.85;;;14.10;99.90;;;;;;5086410;28;20123;-82
2022/05/22 07:15:57;;;;;;;10.52;4.18;;;14.20;99.90;;;;;;5069483;28;20479;-81
2022/05/22 07:18:22;;;;;;;13.18;3.85;;;14.20;99.90;;;;;;5084428;28;20048;-81
2022/05/22 07:20:48;;;;;;;12.23;3.45;;;14.30;99.90;;;;;;5087847;28;20055;-76
2022/05/22 07:23:13;;;;;;;12.35;4.03;;;14.30;99.90;;;;;;5087144;28;20462;-77
2022/05/22 07:25:39;;;;;;;13.55;3.50;;;14.50;99.90;;;;;;5089049;28;20129;-78
2022/05/22 07:28:05;;;;;;;11.15;2.63;;;14.40;99.90;;;;;;5088917;28;20042;-75
2022/05/22 07:30:33;;;;;;;11.45;2.70;;;14.40;99.90;;;;;;5086802;28;20032;-75
2022/05/22 07:32:58;;;;;;;11.00;2.78;;;14.50;99.90;;;;;;5069472;28;20078;-74
2022/05/22 07:35:24;;;;;;;12.05;3.10;;;14.50;99.90;;;;;;5088248;28;20093;-75
2022/05/22 07:37:50;;;;;;;11.50;3.08;;;14.50;99.90;;;;;;5087708;28;20550;-75
2022/05/22 07:40:16;;;;;;;17.00;3.63;;;14.60;99.90;;;;;;5070609;28;20674;-75
2022/05/22 07:42:42;;;;;;;14.77;2.95;;;14.60;99.90;;;;;;5069733;28;20178;-75
2022/05/22 07:45:10;;;;;;;10.35;2.80;;;14.70;99.90;;;;;;5085801;28;20186;-74
2022/05/22 07:47:35;;;;;;;11.75;2.80;;;14.80;99.90;;;;;;5085819;28;20071;-74
2022/05/22 07:50:17;;;;;;;10.90;2.72;;;14.80;99.90;;;;;;5067314;28;20044;-75
2022/05/22 07:52:46;;;;;;;10.15;3.03;;;14.90;99.90;;;;;;5069838;28;20094;-75
2022/05/22 07:55:15;;;;;;;14.60;2.90;;;14.90;99.90;;;;;;5069745;28;20521;-76
2022/05/22 07:57:50;;;;;;;13.50;2.85;;;15.00;99.90;;;;;;5069231;28;20063;-75
2022/05/22 08:00:20;;;;;;;10.98;2.13;;;15.10;99.90;;;;;;5067608;28;20108;-74
2022/05/22 08:02:50;;;;;;;9.25;2.88;;;15.10;99.90;;;;;;5064064;28;20052;-74
2022/05/22 08:05:18;;;;;;;9.88;2.20;;;15.10;99.90;;;;;;5082531;28;20063;-75
2022/05/22 08:07:44;;;;;;;12.60;2.85;;;15.20;99.90;;;;;;5066857;28;20507;-74
2022/05/22 08:10:11;;;;;;;14.38;2.92;;;15.30;99.90;;;;;;5088914;28;20067;-74
2022/05/22 08:12:43;;;;;;;11.55;3.58;;;15.30;99.90;;;;;;5086156;28;20587;-74
2022/05/22 08:15:14;;;;;;;12.60;2.35;;;15.40;99.90;;;;;;5092509;28;20060;-74
2022/05/22 08:17:40;;;;;;;14.05;2.63;;;15.50;99.90;;;;;;5090595;28;20171;-75
2022/05/22 08:20:12;;;;;;;12.55;3.60;;;15.60;99.90;;;;;;5070217;28;20154;-76
2022/05/22 08:22:40;;;;;;;10.77;2.47;;;15.60;99.90;;;;;;5086771;28;20051;-75
2022/05/22 08:25:06;;;;;;;12.15;2.28;;;15.60;99.90;;;;;;5086000;28;20105;-76
2022/05/22 08:27:32;;;;;;;6.97;2.22;;;15.70;99.90;;;;;;5071620;28;20077;-77
2022/05/22 08:29:58;;;;;;;8.43;2.83;;;15.70;99.90;;;;;;5087558;28;20044;-74
2022/05/22 08:32:24;;;;;;;12.68;2.72;;;15.70;99.90;;;;;;5090797;28;20051;-75
2022/05/22 08:34:55;;;;;;;15.63;2.85;;;15.80;99.90;;;;;;5092382;28;20735;-75
2022/05/22 08:37:20;;;;;;;;;;;15.80;99.90;;;;;;5089053;28;20032;-75
2022/05/22 08:39:46;;;;;;;12.80;3.67;;;15.90;99.90;;;;;;5082695;28;19928;-74
2022/05/22 08:42:20;;;;;;;9.00;2.10;;;15.80;99.90;;;;;;5088785;28;20159;-75
2022/05/22 08:44:54;;;;;;;11.50;2.65;;;15.90;99.90;;;;;;5091022;28;20415;-74
2022/05/22 08:47:39;;;;;;;9.80;2.58;;;15.90;99.90;;;;;;5062533;28;20056;-75
2022/05/22 08:50:11;;;;;;;16.67;3.72;;;15.90;99.90;;;;;;5068901;28;20056;-76
2022/05/22 08:52:42;;;;;;;7.43;2.85;;;16.00;99.90;;;;;;5070501;28;20047;-75
2022/05/22 08:58:56;;;;;;;5.55;2.08;;;16.10;99.90;;;;;;5089141;28;20052;-75
2022/05/22 09:01:10;;;;;;;11.70;2.42;;;16.20;99.90;;;;;;5057791;28;20052;-76
2022/05/22 09:03:59;;;;;;;11.88;2.92;;;16.30;99.90;;;;;;5069262;28;20047;-75
2022/05/22 09:06:41;;;;;;;10.35;2.10;;;16.40;99.90;;;;;;5091630;28;20051;-75
2022/05/22 09:09:07;;;;;;;13.02;2.78;;;16.50;99.90;;;;;;5092354;28;20047;-75
2022/05/22 09:11:54;;;;;;;7.93;1.80;;;16.50;99.90;;;;;;5094008;28;20044;-75
2022/05/22 09:14:28;;;;;;;10.60;1.65;;;16.50;99.90;;;;;;5091112;28;20036;-75
2022/05/22 09:17:08;;;;;;;13.32;2.10;;;16.60;99.90;;;;;;5076428;28;20047;-77
2022/05/22 09:19:43;;;;;;;10.30;2.38;;;16.50;99.90;;;;;;5075036;28;20044;-76
2022/05/22 09:22:31;;;;;;;7.15;1.73;;;16.50;99.90;;;;;;5093857;28;20040;-77
2022/05/22 09:25:18;;;;;;;8.82;1.90;;;16.60;99.90;;;;;;5090853;28;20146;-77
2022/05/22 09:28:05;;;;;;;12.57;2.40;;;16.60;99.90;;;;;;5092665;28;20048;-76
2022/05/22 09:30:42;;;;;;;10.82;2.10;;;16.60;99.90;;;;;;5088665;28;20052;-77
2022/05/22 09:33:49;;;;;;;9.00;2.00;;;16.70;99.90;;;;;;5090032;28;20082;-77
2022/05/22 09:36:20;;;;;;;6.75;1.40;;;16.70;99.90;;;;;;5040659;28;20051;-77
2022/05/22 09:38:51;;;;;;;4.75;1.77;;;16.70;99.90;;;;;;5071709;28;20044;-75
2022/05/22 09:41:40;;;;;;;9.88;2.15;;;16.70;99.90;;;;;;5088347;28;20041;-76
2022/05/22 09:44:40;;;;;;;9.85;2.00;;;16.80;99.90;;;;;;5085194;28;20040;-76
2022/05/22 09:47:32;;;;;;;9.20;2.05;;;17.00;99.90;;;;;;5060786;28;20101;-78
2022/05/22 09:50:35;;;;;;;5.15;1.90;;;17.10;99.90;;;;;;5082900;28;20385;-80
2022/05/22 09:53:27;;;;;;;7.43;1.50;;;17.20;99.90;;;;;;5063568;28;20060;-79
2022/05/22 09:56:04;;;;;;;6.72;1.73;;;17.20;99.90;;;;;;5039609;28;20048;-77
2022/05/22 09:59:08;;;;;;;6.97;1.70;;;17.30;99.90;;;;;;5084910;28;20036;-77
2022/05/22 10:01:40;;;;;;;6.43;1.65;;;17.30;99.90;;;;;;5017399;28;20048;-76
2022/05/22 10:04:46;;;;;;;7.68;1.63;;;17.50;99.90;;;;;;5013370;28;20089;-77
2022/05/22 10:07:48;;;;;;;10.25;1.52;;;17.50;99.90;;;;;;5072185;28;20075;-78
2022/05/22 10:10:26;;;;;;;4.88;1.30;;;17.60;99.90;;;;;;5083592;28;20036;-77
2022/05/22 10:13:22;;;;;;;12.57;1.92;;;17.70;99.90;;;;;;5090514;28;20059;-78
2022/05/22 10:15:50;;;;;;;7.90;1.70;;;17.80;99.90;;;;;;5028546;28;20044;-78
2022/05/22 10:18:38;;;;;;;5.53;1.42;;;17.80;99.90;;;;;;5089954;28;20048;-78
2022/05/22 10:21:26;;;;;;;5.28;1.70;;;17.80;99.90;;;;;;5088788;28;20044;-77
2022/05/22 10:24:01;;;;;;;7.63;1.30;;;17.80;99.90;;;;;;5091170;28;20050;-78
2022/05/22 10:27:03;;;;;;;12.40;2.40;;;17.80;99.90;;;;;;5090594;28;20440;-77
2022/05/22 10:29:40;;;;;;;9.25;1.92;;;17.90;99.90;;;;;;5060840;28;20047;-78
2022/05/22 10:32:20;;;;;;;6.43;1.50;;;17.90;99.90;;;;;;5071894;28;20054;-78
2022/05/22 10:34:49;;;;;;;9.15;1.98;;;18.00;99.90;;;;;;5070429;28;20494;-78
2022/05/22 10:37:27;;;;;;;8.18;1.85;;;18.00;99.90;;;;;;5071998;28;20134;-78
2022/05/22 10:39:53;;;;;;;5.28;1.45;;;18.10;99.90;;;;;;5087730;28;20043;-77
2022/05/22 10:42:48;;;;;;;8.18;1.45;;;18.10;99.90;;;;;;5091285;28;20394;-78
2022/05/22 10:45:32;;;;;;;5.72;1.25;;;18.20;99.90;;;;;;5084635;28;20305;-78
2022/05/22 10:48:17;;;;;;;11.35;1.42;;;18.20;99.90;;;;;;5086548;28;20116;-77
2022/05/22 10:50:57;;;;;;;8.93;1.80;;;18.20;99.90;;;;;;5057840;28;20130;-78
2022/05/22 10:53:45;;;;;;;7.25;1.42;;;18.30;99.90;;;;;;5078541;28;20063;-77
2022/05/22 10:56:14;;;;;;;7.10;1.25;;;18.30;99.90;;;;;;5043654;28;20582;-77
2022/05/22 10:58:51;;;;;;;9.60;1.55;;;18.30;99.90;;;;;;5062671;28;20051;-77
2022/05/22 11:01:21;;;;;;;8.25;1.83;;;18.30;99.90;;;;;;5066863;28;20044;-78
2022/05/22 11:03:47;;;;;;;6.07;1.52;;;18.40;99.90;;;;;;5067374;28;20045;-78
2022/05/22 11:06:20;;;;;;;6.25;1.75;;;18.40;99.90;;;;;;5063943;28;20045;-78
2022/05/22 11:08:53;;;;;;;3.97;1.63;;;18.50;99.90;;;;;;5067176;28;20492;-78
2022/05/22 11:11:23;;;;;;;5.88;1.13;;;18.40;99.90;;;;;;5065262;28;20134;-78
2022/05/22 11:13:51;;;;;;;5.45;1.45;;;18.40;99.90;;;;;;5069099;28;20567;-78
2022/05/22 11:16:28;;;;;;;4.05;1.17;;;18.40;99.90;;;;;;5065158;28;20040;-77
2022/05/22 11:19:29;;;;;;;8.55;1.48;;;18.40;99.90;;;;;;5048418;28;20373;-77
2022/05/22 11:22:19;;;;;;;6.43;2.10;;;18.50;99.90;;;;;;5058562;28;20043;-78
2022/05/22 11:24:56;;;;;;;5.35;1.23;;;18.60;99.80;;;;;;5059956;28;20044;-76
2022/05/22 11:27:58;;;;;;;5.93;1.00;;;18.70;99.90;;;;;;5060369;28;20085;-76
2022/05/22 11:30:41;;;;;;;;;;;18.90;99.90;;;;;;5064425;28;20055;-75
2022/05/22 11:33:33;;;;;;;4.95;1.33;;;18.90;99.90;;;;;;5058564;28;19924;-75
2022/05/22 11:36:28;;;;;;;8.45;1.63;;;19.20;99.90;;;;;;5069398;28;20145;-76
2022/05/22 11:39:18;;;;;;;4.40;1.30;;;19.30;99.80;;;;;;5062927;28;20048;-75
2022/05/22 11:41:50;;;;;;;5.40;1.35;;;19.40;99.60;;;;;;5068326;28;20044;-76
2022/05/22 11:44:25;;;;;;;6.25;1.52;;;19.50;98.90;;;;;;5068951;28;20050;-76
2022/05/22 11:47:01;;;;;;;10.13;1.40;;;19.60;98.60;;;;;;5067125;28;20045;-76
2022/05/22 11:49:32;;;;;;;4.65;1.40;;;19.80;98.50;;;;;;5078904;28;20053;-76
2022/05/22 11:55:31;;;;;;;5.47;1.70;;;20.00;98.30;;;;;;5073238;28;20044;-77
2022/05/22 11:58:15;;;;;;;7.55;1.63;;;20.10;96.80;;;;;;5084366;28;20052;-76
2022/05/22 12:01:03;;;;;;;4.63;1.33;;;20.20;95.70;;;;;;5089038;28;20070;-76
2022/05/22 12:04:06;;;;;;;7.15;1.50;;;20.10;96.00;;;;;;5088068;28;20149;-77
2022/05/22 12:06:44;;;;;;;5.45;1.30;;;20.20;96.50;;;;;;5070716;28;20075;-76
2022/05/22 12:09:28;;;;;;;5.55;1.20;;;20.30;96.40;;;;;;5089155;28;20096;-76
2022/05/22 12:11:56;;;;;;;5.25;1.27;;;20.30;96.20;;;;;;5070304;28;20047;-76
2022/05/22 12:14:37;;;;;;;5.97;1.75;;;20.30;95.80;;;;;;5070716;28;20074;-76
2022/05/22 12:17:25;;;;;;;5.05;0.95;;;20.20;95.80;;;;;;5089531;28;20093;-76
2022/05/22 12:20:05;;;;;;;9.63;1.50;;;20.20;95.80;;;;;;5070285;28;20064;-76
2022/05/22 12:25:24;;;;;;;8.82;1.73;;;20.10;96.20;;;;;;5070153;28;20056;-76
2022/05/22 12:27:51;;;;;;;4.78;1.10;;;20.10;96.10;;;;;;5083568;28;20391;-76
2022/05/22 12:30:24;;;;;;;5.70;1.73;;;20.10;96.10;;;;;;5071099;28;20067;-76
2022/05/22 12:33:18;;;;;;;5.07;1.55;;;20.20;96.70;;;;;;5087125;28;20357;-76
2022/05/22 12:35:44;;;;;;;7.45;1.73;;;20.30;96.80;;;;;;5067284;28;20056;-76
2022/05/22 12:38:13;;;;;;;4.22;1.00;;;20.40;96.30;;;;;;5088612;28;20138;-76
2022/05/22 12:40:42;;;;;;;11.73;1.50;;;20.40;95.90;;;;;;5088530;28;20040;-76
2022/05/22 12:43:13;;;;;;;6.32;1.80;;;20.40;95.80;;;;;;5070471;28;20040;-75
2022/05/22 12:45:40;;;;;;;8.90;1.45;;;20.50;95.50;;;;;;5070960;28;20089;-76
2022/05/22 12:48:11;;;;;;;5.55;1.23;;;20.50;95.30;;;;;;5068876;28;20052;-76
2022/05/22 12:50:44;;;;;;;3.83;1.20;;;20.50;95.40;;;;;;5089014;28;20387;-76
2022/05/22 12:53:26;;;;;;;3.88;1.67;;;20.50;95.30;;;;;;5088083;28;20480;-78
2022/05/22 12:55:53;;;;;;;8.98;1.98;;;20.50;94.60;;;;;;5070095;28;20140;-76
2022/05/22 12:58:37;;;;;;;18.27;1.98;;;20.40;94.60;;;;;;5088567;28;20048;-76
2022/05/22 13:01:22;;;;;;;8.73;1.48;;;20.30;94.70;;;;;;5050445;28;20052;-76
2022/05/22 13:03:51;;;;;;;8.52;1.42;;;20.30;94.50;;;;;;5049673;28;20531;-76
2022/05/22 13:06:21;;;;;;;26.13;1.55;;;20.20;94.90;;;;;;5050416;28;20503;-76
2022/05/22 13:09:07;;;;;;;4.88;1.67;;;20.10;95.10;;;;;;5067643;28;20044;-75
2022/05/22 13:11:53;;;;;;;5.60;1.30;;;20.20;95.30;;;;;;5049971;28;20063;-76
2022/05/22 13:14:26;;;;;;;6.45;1.42;;;20.10;94.10;;;;;;5052928;28;20052;-76
2022/05/22 13:16:52;;;;;;;9.38;1.30;;;20.00;94.10;;;;;;5053493;28;20052;-75
2022/05/22 13:19:21;;;;;;;8.38;1.38;;;20.00;94.10;;;;;;5071254;28;20079;-76
2022/05/22 13:21:48;;;;;;;6.78;1.42;;;19.90;93.50;;;;;;5077453;28;20392;-75